Time;durP1;ratioP1;P1;durP2;ratioP2;P2;SDS_P1;SDS_P2;PMS_P1;PMS_P2;Temp;Humidity;BMP_temperature;BMP_pressure;BME280_temperature;BME280_humidity;BME280_pressure;Samples;Min_cycle;Max_cycle;Signal;HPM_P1;HPM_P2
2021/11/10 00:00:25;;;;;;;3.25;1.45;;;;;;;12.63;42.33;101429.38;1688558;82;21015;-64
2021/11/10 00:02:52;;;;;;;3.00;1.52;;;;;;;12.72;42.04;101429.67;1718727;81;21139;-63
2021/11/10 00:05:20;;;;;;;2.95;1.52;;;;;;;12.91;41.89;101426.66;1713501;81;21015;-69
2021/11/10 00:07:47;;;;;;;2.72;1.60;;;;;;;13.05;41.75;101436.92;1714417;81;21097;-65
2021/11/10 00:10:15;;;;;;;2.20;1.30;;;;;;;13.09;41.73;101436.09;1718836;81;21052;-65
2021/11/10 00:12:45;;;;;;;2.62;1.27;;;;;;;12.89;41.79;101448.77;1681292;83;21059;-64
2021/11/10 00:15:12;;;;;;;2.65;1.27;;;;;;;13.01;41.51;101448.72;1714371;81;21188;-74
2021/11/10 00:17:41;;;;;;;3.90;2.20;;;;;;;12.75;41.94;101449.45;1714163;81;21062;-62
2021/11/10 00:20:10;;;;;;;3.60;1.60;;;;;;;12.52;42.27;101456.70;1713568;81;20935;-63
2021/11/10 00:22:37;;;;;;;4.00;1.67;;;;;;;11.94;43.13;101456.41;1714276;81;21033;-64
2021/11/10 00:25:06;;;;;;;2.75;1.42;;;;;;;11.88;43.40;101460.97;1712744;81;21098;-72
2021/11/10 00:27:34;;;;;;;3.80;1.77;;;;;;;11.46;43.81;101461.84;1712567;81;20951;-63
2021/11/10 00:30:03;;;;;;;2.83;1.22;;;;;;;11.70;43.72;101467.59;1713533;81;21075;-73
2021/11/10 00:32:32;;;;;;;2.27;1.07;;;;;;;12.17;42.79;101470.95;1714282;81;20998;-62
2021/11/10 00:34:59;;;;;;;3.85;1.27;;;;;;;12.50;41.77;101478.30;1711150;81;21012;-64
2021/11/10 00:37:26;;;;;;;3.00;1.45;;;;;;;12.09;41.82;101476.19;1713612;81;20951;-66
2021/11/10 00:39:53;;;;;;;3.15;1.50;;;;;;;11.97;41.79;101477.00;1714033;81;22431;-73
2021/11/10 00:42:20;;;;;;;3.05;1.50;;;;;;;11.34;42.63;101482.20;1714213;81;21163;-63
2021/11/10 00:44:47;;;;;;;2.52;1.20;;;;;;;11.41;42.58;101488.43;1714360;81;22268;-63
2021/11/10 00:47:14;;;;;;;2.05;1.10;;;;;;;11.97;41.37;101488.76;1713837;81;21557;-73
2021/11/10 00:49:43;;;;;;;1.90;0.82;;;;;;;11.66;41.30;101485.88;1714324;81;21757;-62
2021/11/10 00:52:10;;;;;;;1.95;1.00;;;;;;;11.50;41.24;101506.23;1713620;81;21107;-62
2021/11/10 00:54:38;;;;;;;2.37;0.90;;;;;;;11.42;41.30;101507.03;1714296;81;21594;-62
2021/11/10 00:57:06;;;;;;;2.20;0.95;;;;;;;11.26;41.72;101509.58;1714231;81;20995;-72
2021/11/10 00:59:33;;;;;;;2.42;1.02;;;;;;;11.75;40.66;101517.58;1713906;81;21034;-64
2021/11/10 01:02:01;;;;;;;1.80;1.00;;;;;;;11.51;40.75;101522.72;1713448;81;21097;-64
2021/11/10 01:04:28;;;;;;;1.87;1.10;;;;;;;11.80;40.41;101525.75;1719165;81;21167;-65
2021/11/10 01:06:56;;;;;;;2.55;1.10;;;;;;;11.88;40.45;101528.90;1755947;81;21041;-63
2021/11/10 01:09:24;;;;;;;2.22;1.07;;;;;;;12.07;40.03;101537.75;1750586;81;20860;-73
2021/11/10 01:11:51;;;;;;;1.77;0.70;;;;;;;12.01;39.83;101541.48;1751164;81;20986;-74
2021/11/10 01:14:19;;;;;;;6.25;1.17;;;;;;;11.83;39.79;101548.98;1751894;81;21045;-62
2021/11/10 01:16:47;;;;;;;1.72;0.70;;;;;;;11.60;39.99;101557.86;1751733;81;21131;-63
2021/11/10 01:19:16;;;;;;;2.22;0.98;;;;;;;11.60;40.22;101555.73;1751838;81;21515;-64
2021/11/10 01:21:43;;;;;;;2.30;1.22;;;;;;;11.76;39.96;101555.78;1751216;81;20910;-73
2021/11/10 01:24:12;;;;;;;3.83;1.32;;;;;;;11.55;40.21;101550.97;1749629;81;21384;-63
2021/11/10 01:26:40;;;;;;;2.87;1.30;;;;;;;11.65;40.30;101556.07;1753948;79;20955;-65
2021/11/10 01:29:08;;;;;;;2.50;1.20;;;;;;;11.86;39.87;101559.13;1751413;81;21154;-64
2021/11/10 01:31:37;;;;;;;2.20;1.12;;;;;;;11.82;39.75;101560.39;1751218;81;21021;-71
2021/11/10 01:34:07;;;;;;;4.35;1.50;;;;;;;11.96;39.48;101572.52;1748873;81;21377;-67
2021/11/10 01:36:33;;;;;;;2.10;1.20;;;;;;;11.55;40.04;101569.24;1690083;84;22337;-62
2021/11/10 01:39:01;;;;;;;2.47;1.27;;;;;;;11.63;40.05;101572.37;1750218;81;21591;-63
2021/11/10 01:41:28;;;;;;;2.52;1.17;;;;;;;11.19;40.46;101575.13;1690015;84;21309;-66
2021/11/10 01:43:56;;;;;;;2.95;1.40;;;;;;;11.09;40.81;101569.99;1688838;84;21117;-73
2021/11/10 01:46:23;;;;;;;2.98;1.47;;;;;;;11.42;40.40;101573.61;1714598;83;20992;-62
2021/11/10 01:48:51;;;;;;;3.70;1.95;;;;;;;11.61;40.15;101577.77;1749838;81;21009;-63
2021/11/10 01:51:18;;;;;;;3.33;1.62;;;;;;;11.62;40.16;101581.19;1754799;81;21013;-74
2021/11/10 01:53:45;;;;;;;4.17;2.30;;;;;;;11.61;40.22;101577.77;1739290;81;21130;-64
2021/11/10 01:56:17;;;;;;;4.85;2.40;;;;;;;11.65;40.23;101583.50;1745805;81;21068;-64
2021/11/10 01:58:45;;;;;;;5.30;3.67;;;;;;;11.72;40.27;101576.67;1732389;81;21059;-64
2021/11/10 02:01:13;;;;;;;4.17;2.72;;;;;;;11.66;40.26;101589.05;1749172;81;21068;-73
2021/11/10 02:03:40;;;;;;;4.30;2.30;;;;;;;11.61;40.23;101590.02;1755079;80;21162;-63
2021/11/10 02:06:12;;;;;;;4.17;2.12;;;;;;;11.50;40.39;101600.73;1763752;79;22399;-63
2021/11/10 02:08:58;;;;;;;5.33;2.27;;;;;;;11.37;40.61;101601.98;1765646;79;20961;-65
2021/11/10 02:11:26;;;;;;;5.28;2.85;;;;;;;11.55;40.28;101610.21;1765482;79;21003;-69
2021/11/10 02:14:05;;;;;;;4.95;3.27;;;;;;;11.45;40.19;101609.85;1766610;79;21094;-62
2021/11/10 02:16:38;;;;;;;5.22;3.45;;;;;;;11.30;40.12;101608.80;1767093;79;21094;-72
2021/11/10 02:19:06;;;;;;;4.65;3.80;;;;;;;11.20;39.78;101614.11;1749413;80;21161;-72
2021/11/10 02:21:36;;;;;;;5.20;3.55;;;;;;;11.07;39.78;101618.11;1767379;79;20961;-63
2021/11/10 02:24:03;;;;;;;4.70;3.25;;;;;;;10.84;39.91;101633.44;1766817;79;21636;-63
2021/11/10 02:26:32;;;;;;;3.83;2.70;;;;;;;10.93;39.86;101638.55;1763206;79;21576;-66
2021/11/10 02:28:59;;;;;;;4.28;2.40;;;;;;;10.97;39.50;101644.28;1768675;79;21141;-63
2021/11/10 02:31:27;;;;;;;4.28;2.70;;;;;;;11.01;39.53;101655.23;1735856;80;21242;-62
2021/11/10 02:33:56;;;;;;;4.40;2.83;;;;;;;11.21;39.19;101654.07;1732594;81;21181;-63
2021/11/10 02:36:23;;;;;;;4.55;2.65;;;;;;;11.49;38.86;101661.28;1675077;82;21088;-70
2021/11/10 02:38:51;;;;;;;4.53;3.02;;;;;;;11.32;39.25;101659.53;1723112;81;21144;-64
2021/11/10 02:41:19;;;;;;;3.80;2.45;;;;;;;11.18;39.48;101672.18;1717671;82;21087;-72
2021/11/10 02:43:47;;;;;;;4.25;2.25;;;;;;;11.37;39.52;101682.91;1721990;81;21188;-63
2021/11/10 02:46:14;;;;;;;4.20;1.60;;;;;;;11.31;39.59;101681.39;1718123;81;20992;-70
2021/11/10 02:48:42;;;;;;;2.25;0.85;;;;;;;11.36;39.67;101686.48;1722344;81;21007;-65
2021/11/10 02:51:09;;;;;;;3.37;1.02;;;;;;;11.04;39.33;101698.00;1724372;81;21113;-62
2021/11/10 02:53:39;;;;;;;3.37;1.10;;;;;;;11.22;38.90;101699.29;1736229;80;21038;-62
2021/11/10 02:56:06;;;;;;;2.35;0.98;;;;;;;11.34;38.47;101703.28;1733555;80;21119;-64
2021/11/10 02:58:34;;;;;;;4.15;1.42;;;;;;;11.26;38.70;101708.45;1767141;79;21077;-73
2021/11/10 03:01:03;;;;;;;2.85;1.30;;;;;;;11.24;38.53;101712.50;1740461;80;20991;-61
2021/11/10 03:03:30;;;;;;;3.12;1.00;;;;;;;11.55;38.08;101715.98;1707288;82;21055;-72
2021/11/10 03:05:58;;;;;;;2.05;1.10;;;;;;;11.28;37.67;101704.70;1735459;80;21039;-65
2021/11/10 03:08:26;;;;;;;2.52;1.22;;;;;;;11.34;37.39;101722.38;1721259;81;21483;-62
2021/11/10 03:10:56;;;;;;;2.72;1.40;;;;;;;11.42;37.44;101726.34;1723843;81;20915;-62
2021/11/10 03:13:23;;;;;;;2.90;1.40;;;;;;;11.42;37.29;101736.79;1730678;81;21073;-62
2021/11/10 03:15:51;;;;;;;3.20;1.62;;;;;;;11.32;37.05;101730.83;1729806;81;21031;-62
2021/11/10 03:18:20;;;;;;;2.85;1.65;;;;;;;11.34;36.96;101734.13;1733426;81;21140;-62
2021/11/10 03:20:49;;;;;;;7.35;2.25;;;;;;;11.40;36.90;101736.59;1729775;81;21186;-62
2021/11/10 03:23:16;;;;;;;4.37;2.20;;;;;;;11.26;37.13;101733.25;1728976;81;21575;-63
2021/11/10 03:25:45;;;;;;;4.40;2.60;;;;;;;11.28;37.16;101741.24;1730266;81;20943;-72
2021/11/10 03:28:12;;;;;;;4.83;2.20;;;;;;;11.36;37.12;101742.61;1730192;81;22280;-63
2021/11/10 03:30:40;;;;;;;4.78;2.65;;;;;;;11.22;37.16;101739.74;1729751;81;21027;-64
2021/11/10 03:33:08;;;;;;;4.78;2.72;;;;;;;11.29;36.81;101750.73;1730406;81;21192;-62
2021/11/10 03:35:36;;;;;;;6.20;2.67;;;;;;;11.01;37.10;101760.91;1730061;81;21548;-72
2021/11/10 03:38:04;;;;;;;4.70;2.55;;;;;;;11.11;37.12;101761.67;1730203;81;21181;-63
2021/11/10 03:40:32;;;;;;;4.12;2.55;;;;;;;11.20;36.93;101767.28;1728449;81;21500;-74
2021/11/10 03:42:59;;;;;;;4.05;2.47;;;;;;;11.16;36.82;101770.67;1730245;81;21109;-65
2021/11/10 03:45:28;;;;;;;5.08;2.17;;;;;;;11.35;36.49;101764.47;1730485;81;22293;-64
2021/11/10 03:47:57;;;;;;;3.22;1.45;;;;;;;11.40;36.28;101777.91;1728853;81;20979;-64
2021/11/10 03:50:25;;;;;;;3.27;2.15;;;;;;;11.37;36.04;101771.69;1729676;81;21485;-68
2021/11/10 03:52:54;;;;;;;3.62;2.33;;;;;;;11.24;36.16;101786.08;1730319;81;21630;-64
2021/11/10 03:55:22;;;;;;;2.98;1.80;;;;;;;11.34;36.04;101779.81;1730699;81;21030;-62
2021/11/10 03:57:49;;;;;;;3.90;1.67;;;;;;;11.21;36.07;101791.10;1729749;81;21169;-63
2021/11/10 04:00:17;;;;;;;4.83;1.80;;;;;;;11.06;36.42;101789.98;1734408;80;20966;-75
2021/11/10 04:02:44;;;;;;;2.27;1.12;;;;;;;11.21;36.26;101795.02;1814034;78;21078;-66
2021/11/10 04:05:13;;;;;;;2.60;1.30;;;;;;;11.35;35.99;101797.11;1776159;78;20990;-65
2021/11/10 04:07:41;;;;;;;2.62;1.30;;;;;;;11.41;35.86;101793.91;1780776;79;20969;-74
2021/11/10 04:10:08;;;;;;;3.12;1.17;;;;;;;11.43;35.72;101802.39;1789327;79;21081;-64
2021/11/10 04:12:35;;;;;;;2.90;1.20;;;;;;;11.32;35.90;101809.64;1787319;79;20973;-65
2021/11/10 04:15:03;;;;;;;2.20;1.10;;;;;;;11.27;35.92;101797.53;1768331;79;21519;-66
2021/11/10 04:17:32;;;;;;;3.02;1.15;;;;;;;11.27;35.84;101819.23;1768352;80;21534;-66
2021/11/10 04:20:00;;;;;;;2.62;1.17;;;;;;;11.27;35.97;101819.72;1769554;80;20921;-64
2021/11/10 04:22:28;;;;;;;4.42;1.70;;;;;;;11.26;36.04;101826.73;1765565;80;21111;-67
2021/11/10 04:24:55;;;;;;;4.20;1.52;;;;;;;11.31;35.50;101831.50;1774723;80;21017;-63
2021/11/10 04:27:22;;;;;;;3.17;1.45;;;;;;;10.98;35.80;101835.56;1767498;80;21016;-63
2021/11/10 04:29:50;;;;;;;4.85;1.37;;;;;;;10.92;35.81;101836.50;1762228;80;21307;-67
2021/11/10 04:32:18;;;;;;;6.53;1.55;;;;;;;10.92;36.02;101845.62;1745713;81;21063;-71
2021/11/10 04:34:47;;;;;;;3.20;1.50;;;;;;;10.80;36.14;101854.63;1768798;79;22650;-65
2021/11/10 04:37:16;;;;;;;4.08;1.20;;;;;;;10.86;36.00;101851.42;1776675;79;20875;-64
2021/11/10 04:39:43;;;;;;;4.20;1.55;;;;;;;11.02;35.43;101857.78;1782827;79;20947;-73
2021/11/10 04:42:11;;;;;;;3.33;1.40;;;;;;;10.75;35.58;101867.27;1760525;80;21360;-65
2021/11/10 04:44:39;;;;;;;3.00;1.32;;;;;;;11.03;35.42;101867.28;1764505;80;22599;-62
2021/11/10 04:47:07;;;;;;;3.10;1.00;;;;;;;10.90;35.26;101884.08;1784887;79;22218;-63
2021/11/10 04:49:35;;;;;;;5.67;1.40;;;;;;;10.79;35.08;101876.92;1767996;79;21067;-64
2021/11/10 04:52:04;;;;;;;3.30;1.37;;;;;;;10.76;35.24;101886.34;1778607;80;21052;-74
2021/11/10 04:54:31;;;;;;;2.77;1.05;;;;;;;10.74;35.26;101896.92;1762526;80;21399;-64
2021/11/10 04:57:01;;;;;;;3.92;1.50;;;;;;;10.76;35.27;101885.03;1770466;80;21052;-65
2021/11/10 04:59:30;;;;;;;3.42;1.55;;;;;;;10.70;35.30;101906.01;1768198;80;21539;-65
2021/11/10 05:04:34;;;;;;;4.85;1.62;;;;;;;10.59;35.49;101910.91;1738536;80;21480;-64
2021/11/10 05:07:01;;;;;;;3.42;1.50;;;;;;;10.68;35.17;101915.75;1772416;80;20978;-63
2021/11/10 05:09:28;;;;;;;5.10;1.60;;;;;;;10.66;35.25;101925.52;1772057;80;21501;-66
2021/11/10 05:11:55;;;;;;;3.80;1.70;;;;;;;10.47;35.44;101927.70;1768566;80;22536;-67
2021/11/10 05:14:22;;;;;;;4.45;1.90;;;;;;;10.51;35.56;101932.16;1772211;80;20990;-64
2021/11/10 05:16:51;;;;;;;4.22;1.87;;;;;;;10.50;35.45;101935.73;1770503;80;21026;-65
2021/11/10 05:19:19;;;;;;;4.37;1.82;;;;;;;10.54;35.37;101933.18;1765983;80;20951;-65
2021/11/10 05:21:46;;;;;;;3.62;1.80;;;;;;;10.55;35.38;101940.03;1763736;79;21476;-69
2021/11/10 05:24:13;;;;;;;3.70;1.80;;;;;;;10.53;35.24;101947.16;1767332;80;21207;-63
2021/11/10 05:26:42;;;;;;;4.45;1.90;;;;;;;10.37;35.40;101947.26;1769501;80;21088;-62
2021/11/10 05:29:10;;;;;;;3.70;1.90;;;;;;;10.28;35.69;101953.81;1767571;80;22378;-63
2021/11/10 05:31:38;;;;;;;4.62;1.90;;;;;;;10.41;35.54;101962.95;1765041;79;21475;-65
2021/11/10 05:34:05;;;;;;;5.08;1.90;;;;;;;10.48;35.22;101963.23;1773465;79;21040;-63
2021/11/10 05:36:32;;;;;;;3.47;1.47;;;;;;;10.50;35.14;101965.71;1770939;80;21092;-62
2021/11/10 05:38:59;;;;;;;7.40;2.02;;;;;;;10.51;35.16;101960.83;1766365;80;21587;-63
2021/11/10 05:41:27;;;;;;;6.28;2.37;;;;;;;10.30;35.38;101968.81;1776717;80;20936;-71
2021/11/10 05:43:55;;;;;;;5.87;1.80;;;;;;;10.37;35.45;101980.33;1761445;80;20985;-64
2021/11/10 05:46:22;;;;;;;4.42;2.55;;;;;;;10.32;35.41;101982.05;1777514;80;21976;-65
2021/11/10 05:48:49;;;;;;;6.40;2.05;;;;;;;10.36;35.30;101991.72;1769483;80;21088;-63
2021/11/10 05:51:16;;;;;;;5.15;1.50;;;;;;;10.50;35.22;101995.70;1772879;80;20902;-64
2021/11/10 05:53:44;;;;;;;5.17;1.90;;;;;;;10.46;34.96;101985.54;1766604;79;21654;-65
2021/11/10 05:56:19;;;;;;;3.37;1.45;;;;;;;10.52;34.91;102001.58;1767893;80;22127;-63
2021/11/10 05:58:41;;;;;;;7.05;2.00;;;;;;;10.55;34.39;101996.91;1765945;80;21079;-63
2021/11/10 06:01:09;;;;;;;2.80;1.42;;;;;;;10.59;34.34;102000.06;1767605;80;21157;-65
2021/11/10 06:03:37;;;;;;;6.05;2.30;;;;;;;10.51;33.98;102006.45;1746449;81;21481;-64
2021/11/10 06:06:04;;;;;;;3.92;1.15;;;;;;;10.64;34.03;102016.09;1768492;79;21094;-63
2021/11/10 06:08:36;;;;;;;5.65;2.20;;;;;;;10.71;33.68;102019.80;1767167;80;20889;-65
2021/11/10 06:11:00;;;;;;;4.22;1.70;;;;;;;11.05;33.18;102020.59;1767596;80;20995;-66
2021/11/10 06:13:27;;;;;;;8.70;3.10;;;;;;;11.00;33.15;102018.91;1769436;80;21090;-72
2021/11/10 06:15:55;;;;;;;8.25;2.58;;;;;;;10.92;33.50;102024.84;1767133;79;20947;-64
2021/11/10 06:18:22;;;;;;;3.12;1.35;;;;;;;10.94;33.53;102026.31;1768906;80;20922;-64
2021/11/10 06:20:51;;;;;;;6.10;1.70;;;;;;;10.57;33.91;102038.02;1772964;79;20961;-64
2021/11/10 06:23:18;;;;;;;7.83;3.35;;;;;;;10.62;33.79;102034.98;1772523;80;20953;-64
2021/11/10 06:25:45;;;;;;;3.10;1.32;;;;;;;9.45;35.04;102042.64;1765548;80;21088;-69
2021/11/10 06:28:12;;;;;;;3.33;1.22;;;;;;;9.24;35.58;102040.56;1769912;80;21852;-65
2021/11/10 06:30:39;;;;;;;3.15;1.30;;;;;;;9.25;35.90;102037.84;1766320;80;20920;-64
2021/11/10 06:33:06;;;;;;;3.20;1.20;;;;;;;9.30;36.08;102043.95;1768913;79;20933;-64
2021/11/10 06:35:34;;;;;;;3.62;1.30;;;;;;;9.37;36.13;102052.89;1765926;80;20963;-71
2021/11/10 06:38:01;;;;;;;8.30;1.47;;;;;;;9.34;36.19;102046.64;1767128;80;21831;-65
2021/11/10 06:40:48;;;;;;;5.42;2.15;;;;;;;9.43;36.12;102041.12;1767591;80;21077;-64
2021/11/10 06:43:15;;;;;;;4.45;1.65;;;;;;;9.48;36.03;102047.59;1690665;84;20956;-65
2021/11/10 06:45:42;;;;;;;11.22;3.75;;;;;;;9.49;35.35;102048.41;1656462;86;21087;-73
2021/11/10 06:48:10;;;;;;;9.40;2.90;;;;;;;9.35;35.54;102052.19;1685682;83;21049;-63
2021/11/10 06:50:37;;;;;;;8.18;3.37;;;;;;;9.66;34.97;102058.66;1685705;83;21094;-64
2021/11/10 06:53:05;;;;;;;5.45;2.00;;;;;;;9.79;35.06;102070.16;1654074;84;20972;-68
2021/11/10 06:55:32;;;;;;;5.65;2.05;;;;;;;10.05;34.71;102062.20;1685090;84;21089;-72
2021/11/10 06:57:59;;;;;;;6.20;2.15;;;;;;;10.27;33.91;102066.37;1656206;84;21066;-64
2021/11/10 07:00:27;;;;;;;4.25;2.00;;;;;;;10.26;33.87;102068.61;1686315;84;21134;-65
2021/11/10 07:02:54;;;;;;;3.70;1.80;;;;;;;10.56;33.57;102073.34;1654937;84;22154;-70
2021/11/10 07:05:21;;;;;;;3.85;1.62;;;;;;;10.62;33.14;102076.72;1686384;84;21026;-71
2021/11/10 07:07:48;;;;;;;6.33;2.47;;;;;;;10.58;33.18;102084.48;1653668;86;21012;-62
2021/11/10 07:10:17;;;;;;;6.37;1.98;;;;;;;10.53;33.16;102089.27;1685439;84;21150;-63
2021/11/10 07:12:44;;;;;;;7.65;2.42;;;;;;;10.56;32.94;102090.30;1654132;84;21048;-64
2021/11/10 07:15:11;;;;;;;5.90;2.55;;;;;;;10.71;32.52;102098.05;1684353;84;21226;-66
2021/11/10 07:17:40;;;;;;;5.65;2.72;;;;;;;10.66;32.70;102101.55;1653857;86;22205;-63
2021/11/10 07:20:08;;;;;;;6.60;2.60;;;;;;;10.48;32.72;102110.05;1687066;83;21071;-65
2021/11/10 07:22:35;;;;;;;5.83;2.98;;;;;;;10.45;32.57;102107.75;1655507;84;21470;-63
2021/11/10 07:25:05;;;;;;;6.37;3.12;;;;;;;10.37;32.60;102118.00;1692996;83;21480;-70
2021/11/10 07:27:33;;;;;;;5.65;2.92;;;;;;;10.42;32.78;102115.83;1657008;84;21819;-64
2021/11/10 07:30:05;;;;;;;6.10;3.08;;;;;;;10.48;32.49;102113.97;1690705;84;21508;-64
2021/11/10 07:32:35;;;;;;;5.08;2.85;;;;;;;10.25;32.66;102113.88;1657059;84;21629;-66
2021/11/10 07:35:05;;;;;;;6.55;2.67;;;;;;;10.64;32.61;102109.98;1692634;83;21109;-69
2021/11/10 07:37:33;;;;;;;5.25;2.30;;;;;;;10.95;32.48;102112.79;1655504;86;21003;-67
2021/11/10 07:40:00;;;;;;;4.85;2.50;;;;;;;11.65;32.40;102112.43;1691215;83;21162;-67
2021/11/10 07:42:28;;;;;;;5.65;2.35;;;;;;;11.98;31.58;102110.25;1655190;84;21123;-65
2021/11/10 07:45:05;;;;;;;5.30;2.45;;;;;;;12.45;31.11;102105.63;1690707;84;20976;-67
2021/11/10 07:47:28;;;;;;;5.40;2.85;;;;;;;12.61;30.59;102107.11;1689365;83;21030;-66
2021/11/10 07:49:53;;;;;;;5.92;2.77;;;;;;;12.54;30.65;102107.83;1676747;84;21066;-66
2021/11/10 07:52:20;;;;;;;6.08;3.00;;;;;;;12.56;29.96;102118.48;1681460;84;22912;-65
2021/11/10 07:54:48;;;;;;;4.97;2.50;;;;;;;12.65;29.84;102120.67;1656493;86;20992;-71
2021/11/10 07:57:15;;;;;;;6.30;3.02;;;;;;;12.07;30.64;102128.95;1689171;84;21133;-65
2021/11/10 07:59:42;;;;;;;6.05;2.90;;;;;;;12.52;30.11;102120.25;1657227;84;21511;-67
2021/11/10 08:02:09;;;;;;;5.75;2.08;;;;;;;12.46;29.93;102122.97;1687312;84;21129;-67
2021/11/10 08:04:37;;;;;;;4.75;1.80;;;;;;;12.51;30.27;102129.89;1658181;84;21207;-72
2021/11/10 08:07:04;;;;;;;4.33;2.12;;;;;;;12.65;30.00;102118.91;1689090;84;21045;-68
2021/11/10 08:09:33;;;;;;;5.30;2.07;;;;;;;12.90;29.80;102124.32;1657771;84;21031;-71
2021/11/10 08:12:01;;;;;;;4.35;2.22;;;;;;;13.07;29.76;102130.52;1685316;84;21298;-69
2021/11/10 08:14:29;;;;;;;4.23;2.07;;;;;;;13.99;29.74;102116.72;1655338;86;20919;-69
2021/11/10 08:16:58;;;;;;;2.93;1.53;;;;;;;14.43;28.95;102115.64;1691458;84;22474;-68
2021/11/10 08:19:25;;;;;;;3.30;1.70;;;;;;;14.72;28.03;102110.77;1657716;86;21333;-67
2021/11/10 08:21:52;;;;;;;5.20;2.40;;;;;;;14.35;28.34;102115.95;1690247;83;21338;-68
2021/11/10 08:24:21;;;;;;;4.70;2.10;;;;;;;14.44;27.94;102108.13;1688138;83;21307;-69
2021/11/10 08:26:49;;;;;;;4.67;1.90;;;;;;;14.54;27.66;102112.23;1656395;86;21209;-67
2021/11/10 08:29:16;;;;;;;4.33;1.70;;;;;;;14.21;27.40;102111.37;1694269;84;21362;-69
2021/11/10 08:31:44;;;;;;;5.60;1.70;;;;;;;14.22;27.46;102114.81;1662451;86;21280;-71
2021/11/10 08:34:12;;;;;;;5.07;1.50;;;;;;;13.93;27.50;102119.16;1695750;84;21316;-69
2021/11/10 08:36:40;;;;;;;4.67;1.60;;;;;;;13.31;27.80;102125.45;1663450;84;21058;-68
2021/11/10 08:39:07;;;;;;;6.37;1.67;;;;;;;12.63;28.25;102133.11;1697431;83;21390;-67
2021/11/10 08:41:34;;;;;;;7.57;2.37;;;;;;;12.13;29.17;102134.42;1663873;84;21927;-66
2021/11/10 08:44:02;;;;;;;4.27;1.80;;;;;;;12.32;29.68;102134.78;1695824;84;21291;-72
2021/11/10 08:46:29;;;;;;;5.67;1.65;;;;;;;12.56;29.74;102132.88;1698484;83;21243;-65
2021/11/10 08:48:57;;;;;;;3.50;1.50;;;;;;;12.78;29.41;102130.78;1663648;84;21001;-65
2021/11/10 08:51:24;;;;;;;5.62;1.80;;;;;;;13.10;28.92;102123.63;1696280;84;21451;-70
2021/11/10 08:53:52;;;;;;;5.20;1.43;;;;;;;13.31;28.52;102121.52;1664356;84;21353;-68
2021/11/10 08:56:19;;;;;;;3.73;1.50;;;;;;;13.50;28.18;102110.48;1694873;84;21355;-72
2021/11/10 08:58:47;;;;;;;6.15;2.00;;;;;;;13.47;28.41;102114.22;1696508;84;21333;-68
2021/11/10 09:01:17;;;;;;;3.67;1.50;;;;;;;13.59;28.62;102116.08;1662499;86;21057;-68
2021/11/10 09:03:46;;;;;;;6.03;2.20;;;;;;;13.88;28.08;102119.14;1696382;84;21909;-67
2021/11/10 09:06:13;;;;;;;4.03;1.67;;;;;;;14.06;27.82;102118.22;1662923;84;22502;-70
2021/11/10 09:08:41;;;;;;;3.13;1.30;;;;;;;14.62;27.14;102117.16;1697359;83;21156;-66
2021/11/10 09:11:08;;;;;;;5.23;1.57;;;;;;;14.65;26.43;102112.41;1663397;84;21152;-69
2021/11/10 09:13:36;;;;;;;7.40;1.57;;;;;;;14.67;26.29;102120.95;1696166;84;21163;-69
2021/11/10 09:16:04;;;;;;;5.13;1.50;;;;;;;14.50;26.35;102120.60;1663783;84;21794;-70
2021/11/10 09:18:31;;;;;;;4.43;1.13;;;;;;;14.43;26.53;102122.20;1695039;83;21286;-70
2021/11/10 09:21:00;;;;;;;3.03;1.30;;;;;;;14.42;26.64;102116.63;1661167;86;21068;-70
2021/11/10 09:23:27;;;;;;;3.83;1.10;;;;;;;14.51;26.87;102115.20;1699081;83;21778;-68
2021/11/10 09:25:55;;;;;;;5.07;1.40;;;;;;;14.57;26.56;102110.60;1664580;84;21065;-68
2021/11/10 09:28:22;;;;;;;4.03;1.37;;;;;;;14.12;27.07;102112.31;1694713;84;21313;-68
2021/11/10 09:30:53;;;;;;;4.30;1.40;;;;;;;14.28;26.91;102106.27;1696328;83;21380;-70
2021/11/10 09:33:21;;;;;;;5.85;1.55;;;;;;;14.42;26.74;102110.07;1662448;84;21169;-67
2021/11/10 09:35:50;;;;;;;4.47;1.70;;;;;;;13.97;26.79;102118.67;1696354;84;21027;-69
2021/11/10 09:38:18;;;;;;;5.13;1.33;;;;;;;14.16;27.03;102108.88;1694402;84;21684;-68
2021/11/10 09:40:46;;;;;;;5.40;1.37;;;;;;;14.36;27.03;102106.31;1663085;84;21131;-69
2021/11/10 09:43:15;;;;;;;3.37;1.60;;;;;;;14.71;27.00;102100.44;1665861;82;21364;-67
2021/11/10 09:45:43;;;;;;;3.97;1.10;;;;;;;15.03;27.21;102102.20;1691030;82;21270;-67
2021/11/10 09:48:13;;;;;;;6.37;1.50;;;;;;;15.28;26.71;102103.78;1664811;83;21365;-68
2021/11/10 09:50:42;;;;;;;3.63;1.40;;;;;;;15.96;25.82;102108.95;1691759;83;21331;-68
2021/11/10 09:53:09;;;;;;;2.60;1.10;;;;;;;15.41;26.47;102107.68;1692810;82;21355;-68
2021/11/10 09:55:37;;;;;;;4.30;1.30;;;;;;;15.79;26.04;102109.52;1692638;84;21581;-68
2021/11/10 09:58:05;;;;;;;4.87;1.20;;;;;;;15.59;26.07;102108.27;1690423;83;21169;-68
2021/11/10 10:00:53;;;;;;;3.00;1.40;;;;;;;15.53;25.80;102109.79;1692510;84;21232;-70
2021/11/10 10:03:20;;;;;;;3.37;1.10;;;;;;;15.53;25.73;102107.63;1692725;84;21243;-69
2021/11/10 10:05:47;;;;;;;4.90;1.30;;;;;;;15.54;25.81;102103.53;1692767;83;21684;-69
2021/11/10 10:08:16;;;;;;;5.70;1.20;;;;;;;15.52;25.59;102115.20;1691257;83;21808;-69
2021/11/10 10:10:44;;;;;;;4.37;1.40;;;;;;;14.84;25.86;102118.63;1693066;83;21374;-68
2021/11/10 10:13:13;;;;;;;2.83;1.07;;;;;;;14.75;26.23;102114.38;1693938;83;21228;-72
2021/11/10 10:15:42;;;;;;;4.40;1.67;;;;;;;15.05;26.27;102110.24;1690743;82;21206;-68
2021/11/10 10:18:25;;;;;;;13.10;3.63;;;;;;;15.10;26.55;102113.67;1690489;83;21243;-69
2021/11/10 10:20:58;;;;;;;5.00;1.63;;;;;;;15.86;26.11;102111.47;1692702;83;21888;-69
2021/11/10 10:23:35;;;;;;;5.20;1.70;;;;;;;15.81;25.62;102119.38;1689855;84;21641;-69
2021/11/10 10:26:11;;;;;;;5.10;1.90;;;;;;;16.09;25.68;102122.84;1689050;83;21338;-68
2021/11/10 10:28:41;;;;;;;3.83;1.60;;;;;;;16.10;25.70;102128.45;1688821;83;21215;-68
2021/11/10 10:31:12;;;;;;;3.63;1.63;;;;;;;16.68;24.34;102129.67;1689774;84;22694;-69
2021/11/10 10:33:43;;;;;;;2.80;1.30;;;;;;;16.13;24.71;102133.34;1692589;84;21209;-69
2021/11/10 10:36:18;;;;;;;5.35;1.70;;;;;;;16.15;24.54;102125.29;1692294;83;21066;-69
2021/11/10 10:38:49;;;;;;;4.07;1.60;;;;;;;16.01;24.65;102125.02;1686604;83;21052;-68
2021/11/10 10:41:19;;;;;;;5.12;1.50;;;;;;;16.25;24.51;102128.49;1688644;83;21245;-70
2021/11/10 10:43:54;;;;;;;3.20;1.57;;;;;;;16.05;24.29;102135.52;1686235;84;22363;-69
2021/11/10 10:46:25;;;;;;;5.63;2.00;;;;;;;16.25;24.17;102129.80;1652008;85;21587;-69
2021/11/10 10:48:52;;;;;;;5.85;1.77;;;;;;;16.34;24.15;102127.97;1660463;86;21295;-70
2021/11/10 10:51:20;;;;;;;4.37;1.30;;;;;;;16.51;24.20;102121.56;1677480;85;21071;-69
2021/11/10 10:53:50;;;;;;;6.67;1.60;;;;;;;16.67;24.24;102121.45;1651043;86;21310;-69
2021/11/10 10:56:25;;;;;;;2.77;1.10;;;;;;;16.74;24.16;102121.10;1660617;86;21388;-69
2021/11/10 10:58:58;;;;;;;4.30;1.40;;;;;;;16.65;24.43;102120.80;1679373;84;21184;-70
2021/11/10 11:01:41;;;;;;;2.67;1.17;;;;;;;16.97;24.01;102113.15;1649692;86;21308;-69
2021/11/10 11:04:16;;;;;;;4.47;1.50;;;;;;;16.36;24.31;102114.12;1658724;86;21257;-69
2021/11/10 11:06:49;;;;;;;3.10;1.13;;;;;;;16.43;23.92;102111.11;1679548;84;21160;-70
2021/11/10 11:09:26;;;;;;;2.63;0.87;;;;;;;16.10;24.22;102118.39;1651454;86;21770;-69
2021/11/10 11:12:03;;;;;;;2.83;0.90;;;;;;;15.27;24.70;102115.29;1661003;86;21839;-69
2021/11/10 11:14:44;;;;;;;5.50;1.40;;;;;;;15.39;25.00;102110.98;1679886;84;21667;-68
2021/11/10 11:17:25;;;;;;;3.70;1.87;;;;;;;15.47;24.80;102105.70;1649285;86;21237;-69
2021/11/10 11:19:59;;;;;;;;;;;;;;;15.55;24.86;102105.66;1652736;86;21296;-71
2021/11/10 11:22:35;;;;;;;4.17;1.30;;;;;;;15.28;24.71;102115.61;1651675;85;20409;-70
2021/11/10 11:25:15;;;;;;;8.80;5.23;;;;;;;15.22;24.98;102129.41;1660147;84;21941;-70
2021/11/10 11:28:13;;;;;;;7.23;2.27;;;;;;;15.29;25.32;102135.63;1622542;87;21253;-70
2021/11/10 11:30:44;;;;;;;3.70;1.50;;;;;;;15.60;24.64;102140.14;1659067;84;22702;-69
2021/11/10 11:33:15;;;;;;;4.80;1.30;;;;;;;15.14;24.81;102138.62;1678724;83;21652;-71
2021/11/10 11:35:56;;;;;;;3.22;1.27;;;;;;;14.98;25.17;102129.46;1650387;84;21083;-70